Time;durP1;ratioP1;P1;durP2;ratioP2;P2;SDS_P1;SDS_P2;PMS_P1;PMS_P2;Temp;Humidity;BMP_temperature;BMP_pressure;BME280_temperature;BME280_humidity;BME280_pressure;Samples;Min_cycle;Max_cycle;Signal;HPM_P1;HPM_P2
2022/08/28 00:00:31;;;;;;;;;;;15.10;99.90;;;;;;5000950;28;19921;-80
2022/08/28 00:02:57;;;;;;;;;;;15.10;99.90;;;;;;5011066;28;20035;-81
2022/08/28 00:05:23;;;;;;;;;;;15.10;99.90;;;;;;5028512;28;19921;-81
2022/08/28 00:07:49;;;;;;;;;;;15.10;99.90;;;;;;5029973;28;19920;-81
2022/08/28 00:10:16;;;;;;;;;;;15.00;99.90;;;;;;5022027;28;19982;-81
2022/08/28 00:12:42;;;;;;;;;;;15.10;99.90;;;;;;5027914;28;19927;-81
2022/08/28 00:15:11;;;;;;;;;;;15.00;99.90;;;;;;5006868;28;19921;-81
2022/08/28 00:17:36;;;;;;;;;;;15.00;99.90;;;;;;5014318;28;19921;-81
2022/08/28 00:20:03;;;;;;;;;;;15.00;99.90;;;;;;5012739;28;20253;-80
2022/08/28 00:22:28;;;;;;;;;;;15.00;99.90;;;;;;5010276;28;19921;-80
2022/08/28 00:24:54;;;;;;;;;;;14.90;99.90;;;;;;5030012;28;19928;-82
2022/08/28 00:30:04;;;;;;;;;;;15.00;99.90;;;;;;5028137;28;19921;-81
2022/08/28 00:32:31;;;;;;;;;;;14.90;99.90;;;;;;5028793;28;19952;-81
2022/08/28 00:34:56;;;;;;;;;;;14.80;99.90;;;;;;5028379;28;19968;-81
2022/08/28 00:37:22;;;;;;;;;;;14.90;99.90;;;;;;5028440;28;19929;-80
2022/08/28 00:39:48;;;;;;;;;;;14.90;99.90;;;;;;5009796;28;19927;-80
2022/08/28 00:42:13;;;;;;;;;;;14.90;99.90;;;;;;5028950;28;20008;-81
2022/08/28 00:44:39;;;;;;;;;;;14.90;99.90;;;;;;5029851;28;19925;-82
2022/08/28 00:47:05;;;;;;;;;;;14.90;99.90;;;;;;5010953;28;21113;-81
2022/08/28 00:49:36;;;;;;;;;;;14.80;99.90;;;;;;5020188;28;20384;-81
2022/08/28 00:52:10;;;;;;;;;;;14.80;99.90;;;;;;5027901;28;19926;-81
2022/08/28 00:54:45;;;;;;;;;;;14.80;99.90;;;;;;5010525;28;19966;-81
2022/08/28 00:57:13;;;;;;;;;;;14.80;99.90;;;;;;5028731;28;19928;-81
2022/08/28 00:59:39;;;;;;;;;;;14.80;99.90;;;;;;5012809;28;19925;-81
2022/08/28 01:02:05;;;;;;;;;;;14.80;99.90;;;;;;5028527;28;19925;-82
2022/08/28 01:04:31;;;;;;;;;;;14.80;99.90;;;;;;5028943;28;19931;-82
2022/08/28 01:06:57;;;;;;;;;;;14.80;99.90;;;;;;5013527;28;20380;-82
2022/08/28 01:09:25;;;;;;;;;;;14.70;99.90;;;;;;5035149;28;19984;-81
2022/08/28 01:11:52;;;;;;;;;;;14.70;99.90;;;;;;5034100;28;19952;-81
2022/08/28 01:14:21;;;;;;;;;;;14.70;99.90;;;;;;5041141;28;20027;-82
2022/08/28 01:16:51;;;;;;;;;;;14.70;99.90;;;;;;5041626;28;19981;-81
2022/08/28 01:19:20;;;;;;;;;;;14.70;99.90;;;;;;5032349;28;19929;-81
2022/08/28 01:21:55;;;;;;;;;;;14.60;99.90;;;;;;5038454;28;20006;-81
2022/08/28 01:24:20;;;;;;;;;;;14.60;99.90;;;;;;5034416;28;19986;-82
2022/08/28 01:26:46;;;;;;;;;;;14.60;99.90;;;;;;5036180;28;20475;-81
2022/08/28 01:29:11;;;;;;;;;;;14.60;99.90;;;;;;5039331;28;19937;-81
2022/08/28 01:31:38;;;;;;;;;;;14.60;99.90;;;;;;5055747;28;20291;-82
2022/08/28 01:34:04;;;;;;;;;;;14.70;99.90;;;;;;5011858;28;19928;-82
2022/08/28 01:36:30;;;;;;;;;;;14.60;99.90;;;;;;5040642;28;19960;-82
2022/08/28 01:38:59;;;;;;;;;;;14.60;99.90;;;;;;5016174;28;19956;-82
2022/08/28 01:41:25;;;;;;;;;;;14.60;99.90;;;;;;5015734;28;19982;-82
2022/08/28 01:43:52;;;;;;;;;;;14.60;99.90;;;;;;5036738;28;20347;-81
2022/08/28 01:46:18;;;;;;;;;;;14.60;99.90;;;;;;5033469;28;19969;-83
2022/08/28 01:48:46;;;;;;;;;;;14.50;99.90;;;;;;5027626;28;20347;-82
2022/08/28 01:51:12;;;;;;;;;;;14.60;99.90;;;;;;5011841;28;19928;-81
2022/08/28 01:53:38;;;;;;;;;;;14.60;99.90;;;;;;5004622;28;20377;-81
2022/08/28 01:56:07;;;;;;;;;;;14.50;99.90;;;;;;5031255;28;20397;-81
2022/08/28 01:58:32;;;;;;;;;;;14.60;99.90;;;;;;5039431;28;19927;-82
2022/08/28 02:00:58;;;;;;;;;;;14.50;99.90;;;;;;5032397;28;19924;-82
2022/08/28 02:03:23;;;;;;;;;;;14.60;99.90;;;;;;5010944;28;19921;-82
2022/08/28 02:05:49;;;;;;;;;;;14.50;99.90;;;;;;5017118;28;19925;-83
2022/08/28 02:08:15;;;;;;;;;;;14.50;99.90;;;;;;5036857;28;20015;-83
2022/08/28 02:10:40;;;;;;;;;;;14.50;99.90;;;;;;5023635;28;20013;-82
2022/08/28 02:13:10;;;;;;;;;;;14.50;99.90;;;;;;5022897;28;19920;-82
2022/08/28 02:15:36;;;;;;;;;;;14.50;99.90;;;;;;5040588;28;19928;-82
2022/08/28 02:18:02;;;;;;;;;;;14.50;99.90;;;;;;5032093;28;19921;-82
2022/08/28 02:20:28;;;;;;;;;;;14.50;99.90;;;;;;5029491;28;20281;-82
2022/08/28 02:22:54;;;;;;;;;;;14.50;99.90;;;;;;5012732;28;20395;-83
2022/08/28 02:25:21;;;;;;;;;;;14.60;99.90;;;;;;5032961;28;20039;-83
2022/08/28 02:27:46;;;;;;;;;;;14.50;99.90;;;;;;5032671;28;20322;-83
2022/08/28 02:30:13;;;;;;;;;;;14.50;99.90;;;;;;5042199;28;19928;-82
2022/08/28 02:32:38;;;;;;;;;;;14.50;99.90;;;;;;5025022;28;20036;-82
2022/08/28 02:35:05;;;;;;;;;;;14.60;99.90;;;;;;5044926;28;19933;-83
2022/08/28 02:37:31;;;;;;;;;;;14.50;99.90;;;;;;5053411;28;19921;-82
2022/08/28 02:39:56;;;;;;;;;;;14.60;99.90;;;;;;5042093;28;19931;-82
2022/08/28 02:42:22;;;;;;;;;;;14.50;99.90;;;;;;5051575;28;20372;-83
2022/08/28 02:44:47;;;;;;;;;;;14.50;99.90;;;;;;5043199;28;19921;-82
2022/08/28 02:47:14;;;;;;;;;;;14.50;99.90;;;;;;5042440;28;20022;-82
2022/08/28 02:49:40;;;;;;;;;;;14.50;99.90;;;;;;5003125;28;19935;-83
2022/08/28 02:52:05;;;;;;;;;;;14.60;99.90;;;;;;5030948;28;19924;-82
2022/08/28 02:54:31;;;;;;;;;;;14.70;99.90;;;;;;5013154;28;21491;-83
2022/08/28 02:56:57;;;;;;;;;;;14.50;99.90;;;;;;5010830;28;19936;-82
2022/08/28 02:59:23;;;;;;;;;;;14.50;99.90;;;;;;5032233;28;20423;-83
2022/08/28 03:01:49;;;;;;;;;;;14.60;99.90;;;;;;5028632;28;19925;-82
2022/08/28 03:04:14;;;;;;;;;;;14.50;99.90;;;;;;5038728;28;19960;-82
2022/08/28 03:06:40;;;;;;;;;;;14.50;99.90;;;;;;5046078;28;20431;-83
2022/08/28 03:09:06;;;;;;;;;;;14.50;99.90;;;;;;5015253;28;20385;-82
2022/08/28 03:11:32;;;;;;;;;;;14.50;99.90;;;;;;5014987;28;19921;-83
2022/08/28 03:13:58;;;;;;;;;;;14.50;99.90;;;;;;5015730;28;19920;-82
2022/08/28 03:16:24;;;;;;;;;;;14.50;99.90;;;;;;5038290;28;19964;-83
2022/08/28 03:18:50;;;;;;;;;;;14.50;99.90;;;;;;5041347;28;20269;-84
2022/08/28 03:21:15;;;;;;;;;;;14.50;99.90;;;;;;5036551;28;20365;-84
2022/08/28 03:23:41;;;;;;;;;;;14.50;99.90;;;;;;5029021;28;19968;-82
2022/08/28 03:26:08;;;;;;;;;;;14.50;99.90;;;;;;5015256;28;19970;-83
2022/08/28 03:28:52;;;;;;;;;;;14.60;99.90;;;;;;5016078;28;19936;-83
2022/08/28 03:31:20;;;;;;;;;;;14.60;99.90;;;;;;5014150;28;19928;-83
2022/08/28 03:33:46;;;;;;;;;;;14.60;99.90;;;;;;5029552;28;19921;-84
2022/08/28 03:36:13;;;;;;;;;;;14.60;99.90;;;;;;5022049;28;20431;-83
2022/08/28 03:38:40;;;;;;;;;;;14.60;99.90;;;;;;5034119;28;19936;-83
2022/08/28 03:41:10;;;;;;;;;;;14.60;99.90;;;;;;5018496;28;20020;-82
2022/08/28 03:43:35;;;;;;;;;;;14.60;99.90;;;;;;5014134;28;19968;-83
2022/08/28 03:46:02;;;;;;;;;;;14.70;99.90;;;;;;5040249;28;20296;-83
2022/08/28 03:48:30;;;;;;;;;;;14.70;99.90;;;;;;5049380;28;20400;-83
2022/08/28 03:50:56;;;;;;;;;;;14.70;99.90;;;;;;5039735;28;20367;-83
2022/08/28 03:53:22;;;;;;;;;;;14.70;99.90;;;;;;5040452;28;19950;-83
2022/08/28 03:55:47;;;;;;;;;;;14.70;99.90;;;;;;5027285;28;19921;-83
2022/08/28 03:58:14;;;;;;;;;;;14.70;99.90;;;;;;5049471;28;19931;-83
2022/08/28 04:00:41;;;;;;;;;;;14.70;99.90;;;;;;5037883;28;20386;-81
2022/08/28 04:03:12;;;;;;;;;;;14.60;99.90;;;;;;5025922;28;19925;-80
2022/08/28 04:05:39;;;;;;;;;;;14.80;99.90;;;;;;5019440;28;19927;-81
2022/08/28 04:08:05;;;;;;;;;;;14.80;99.90;;;;;;5021675;28;20015;-82
2022/08/28 04:10:31;;;;;;;;;;;14.80;99.90;;;;;;5021075;28;20007;-82
2022/08/28 04:12:57;;;;;;;;;;;14.80;99.90;;;;;;5033352;28;19928;-81
2022/08/28 04:15:23;;;;;;;;;;;14.80;99.90;;;;;;5023783;28;19920;-81
2022/08/28 04:17:49;;;;;;;;;;;14.80;99.90;;;;;;5018268;28;20415;-81
2022/08/28 04:20:14;;;;;;;;;;;14.80;99.90;;;;;;5017543;28;19921;-81
2022/08/28 04:22:40;;;;;;;;;;;14.80;99.90;;;;;;5017127;28;19929;-81
2022/08/28 04:25:06;;;;;;;;;;;14.90;99.90;;;;;;5026621;28;20484;-82
2022/08/28 04:27:31;;;;;;;;;;;14.80;99.90;;;;;;5019736;28;20552;-81
2022/08/28 04:29:58;;;;;;;;;;;15.00;99.90;;;;;;5015493;28;20020;-81
2022/08/28 04:32:23;;;;;;;;;;;14.90;99.90;;;;;;5035579;28;19921;-81
2022/08/28 04:34:49;;;;;;;;;;;14.90;99.90;;;;;;5022607;28;19936;-82
2022/08/28 04:37:15;;;;;;;;;;;14.80;99.90;;;;;;5018159;28;19921;-81
2022/08/28 04:39:41;;;;;;;;;;;14.90;99.90;;;;;;5050546;28;19948;-81
2022/08/28 04:42:06;;;;;;;;;;;14.90;99.90;;;;;;5029835;28;20016;-81
2022/08/28 04:44:32;;;;;;;;;;;14.90;99.90;;;;;;5031655;28;19917;-81
2022/08/28 04:46:58;;;;;;;;;;;14.90;99.90;;;;;;5015681;28;20343;-81
2022/08/28 04:49:24;;;;;;;;;;;14.80;99.90;;;;;;5037810;28;20327;-81
2022/08/28 04:51:50;;;;;;;;;;;15.00;99.90;;;;;;5031100;28;21306;-82
2022/08/28 04:54:15;;;;;;;;;;;14.90;99.90;;;;;;5005641;28;19921;-81
2022/08/28 04:56:41;;;;;;;;;;;14.90;99.90;;;;;;5015606;28;19921;-82
2022/08/28 04:59:07;;;;;;;;;;;14.90;99.90;;;;;;5043566;28;19928;-83
2022/08/28 05:01:32;;;;;;;;;;;14.90;99.90;;;;;;5033151;28;20322;-83
2022/08/28 05:03:59;;;;;;;;;;;14.90;99.90;;;;;;5009109;28;19921;-83
2022/08/28 05:06:26;;;;;;;;;;;14.90;99.90;;;;;;5037496;28;21247;-83
2022/08/28 05:08:52;;;;;;;;;;;14.90;99.90;;;;;;5013759;28;19943;-82
2022/08/28 05:11:20;;;;;;;;;;;14.90;99.90;;;;;;5020095;28;19924;-82
2022/08/28 05:13:46;;;;;;;;;;;14.90;99.90;;;;;;5032522;28;19927;-83
2022/08/28 05:16:12;;;;;;;;;;;14.90;99.90;;;;;;5013241;28;19929;-83
2022/08/28 05:18:37;;;;;;;;;;;14.90;99.90;;;;;;5013879;28;19974;-83
2022/08/28 05:21:03;;;;;;;;;;;14.90;99.90;;;;;;5028820;28;19921;-83
2022/08/28 05:23:29;;;;;;;;;;;15.00;99.90;;;;;;5038011;28;19999;-83
2022/08/28 05:25:55;;;;;;;;;;;15.10;99.90;;;;;;5009198;28;19971;-82
2022/08/28 05:28:23;;;;;;;;;;;15.10;99.90;;;;;;5027416;28;19921;-82
2022/08/28 05:30:48;;;;;;;;;;;15.10;99.90;;;;;;5030164;28;20389;-83
2022/08/28 05:33:14;;;;;;;;;;;15.10;99.90;;;;;;5038632;28;19927;-83
2022/08/28 05:35:41;;;;;;;;;;;15.20;99.90;;;;;;5023707;28;20015;-83
2022/08/28 05:38:07;;;;;;;;;;;15.20;99.90;;;;;;5015380;28;20039;-83
2022/08/28 05:40:38;;;;;;;;;;;15.20;99.90;;;;;;5031300;28;19921;-83
2022/08/28 05:43:04;;;;;;;;;;;15.30;99.90;;;;;;5019831;28;19936;-83
2022/08/28 05:45:29;;;;;;;;;;;15.30;99.90;;;;;;5029232;28;19924;-82
2022/08/28 05:47:56;;;;;;;;;;;15.30;99.90;;;;;;5016649;28;19921;-83
2022/08/28 05:50:21;;;;;;;;;;;15.40;99.90;;;;;;5032274;28;19970;-83
2022/08/28 05:52:47;;;;;;;;;;;15.50;99.90;;;;;;5029202;28;19924;-81
2022/08/28 05:55:12;;;;;;;;;;;15.50;99.90;;;;;;5030274;28;20335;-83
2022/08/28 05:57:38;;;;;;;;;;;15.60;99.90;;;;;;5028487;28;19924;-82
2022/08/28 06:00:04;;;;;;;;;;;15.70;99.90;;;;;;5042650;28;19943;-81
2022/08/28 06:02:30;;;;;;;;;;;15.80;99.90;;;;;;5043991;28;19921;-82
2022/08/28 06:04:56;;;;;;;;;;;15.80;99.90;;;;;;5041368;28;19943;-81
2022/08/28 06:07:22;;;;;;;;;;;16.00;99.90;;;;;;5050654;28;19932;-83
2022/08/28 06:09:47;;;;;;;;;;;16.10;99.90;;;;;;5049768;28;19921;-81
2022/08/28 06:12:14;;;;;;;;;;;16.20;99.90;;;;;;5042702;28;19924;-81
2022/08/28 06:14:40;;;;;;;;;;;16.30;99.90;;;;;;5053903;28;19952;-81
2022/08/28 06:17:05;;;;;;;;;;;16.40;99.90;;;;;;5059399;28;20375;-82
2022/08/28 06:19:32;;;;;;;;;;;16.40;99.90;;;;;;5050522;28;19943;-81
2022/08/28 06:21:59;;;;;;;;;;;16.50;99.90;;;;;;5024131;28;20389;-80
2022/08/28 06:24:25;;;;;;;;;;;16.60;99.90;;;;;;5043785;28;19923;-81
2022/08/28 06:26:51;;;;;;;;;;;16.60;99.90;;;;;;5032479;28;19932;-82
2022/08/28 06:29:18;;;;;;;;;;;16.60;99.90;;;;;;5050093;28;19924;-82
2022/08/28 06:31:44;;;;;;;;;;;16.70;99.90;;;;;;5050173;28;20132;-83
2022/08/28 06:34:09;;;;;;;;;;;16.70;99.90;;;;;;5032235;28;20445;-81
2022/08/28 06:36:37;;;;;;;;;;;16.70;99.90;;;;;;5024117;28;19917;-82
2022/08/28 06:39:03;;;;;;;;;;;16.70;99.90;;;;;;5049842;28;19960;-83
2022/08/28 06:41:31;;;;;;;;;;;16.80;99.90;;;;;;5048206;28;19925;-83
2022/08/28 06:43:56;;;;;;;;;;;16.80;99.90;;;;;;5024198;28;19917;-82
2022/08/28 06:46:22;;;;;;;;;;;16.90;99.90;;;;;;5018081;28;19932;-82
2022/08/28 06:48:48;;;;;;;;;;;16.90;99.90;;;;;;5043505;28;19982;-81
2022/08/28 06:51:13;;;;;;;;;;;17.00;99.90;;;;;;5047517;28;19920;-81
2022/08/28 06:53:40;;;;;;;;;;;17.00;99.90;;;;;;5018565;28;20287;-82
2022/08/28 06:56:07;;;;;;;;;;;17.00;99.90;;;;;;5015373;28;20008;-82
2022/08/28 06:58:37;;;;;;;;;;;17.10;99.90;;;;;;5033297;28;19929;-83
2022/08/28 07:01:03;;;;;;;;;;;17.20;99.90;;;;;;5035258;28;19971;-79
2022/08/28 07:03:29;;;;;;;;;;;17.20;99.90;;;;;;5038980;28;20149;-85
2022/08/28 07:05:56;;;;;;;;;;;17.30;99.90;;;;;;5024351;28;19927;-85
2022/08/28 07:08:24;;;;;;;;;;;17.30;99.90;;;;;;5019743;28;20000;-82
2022/08/28 07:10:49;;;;;;;;;;;17.40;99.90;;;;;;5027406;28;19928;-83
2022/08/28 07:13:15;;;;;;;;;;;17.50;99.90;;;;;;5040710;28;19929;-81
2022/08/28 07:15:40;;;;;;;;;;;17.50;99.90;;;;;;5007665;28;19936;-81
2022/08/28 07:18:06;;;;;;;;;;;17.60;99.90;;;;;;5025330;28;19936;-85
2022/08/28 07:20:31;;;;;;;;;;;17.40;99.90;;;;;;5026781;28;19921;-84
2022/08/28 07:22:57;;;;;;;;;;;17.70;99.90;;;;;;5028399;28;19974;-83
2022/08/28 07:25:23;;;;;;;;;;;17.70;99.90;;;;;;5003803;28;20007;-85
2022/08/28 07:27:49;;;;;;;;;;;17.80;99.90;;;;;;5006711;28;19928;-84
2022/08/28 07:30:14;;;;;;;;;;;17.80;99.90;;;;;;5010106;28;19975;-84
2022/08/28 07:32:40;;;;;;;;;;;17.80;99.90;;;;;;5007827;28;19929;-84
2022/08/28 07:35:05;;;;;;;;;;;17.80;99.90;;;;;;5007423;28;19928;-84
2022/08/28 07:37:31;;;;;;;;;;;17.80;99.90;;;;;;5027609;28;19928;-83
2022/08/28 07:39:56;;;;;;;;;;;17.90;99.90;;;;;;5006928;28;19921;-84
2022/08/28 07:45:06;;;;;;;;;;;17.80;99.90;;;;;;5005292;28;20336;-85
2022/08/28 07:47:32;;;;;;;;;;;17.90;99.90;;;;;;5010181;28;20380;-82
2022/08/28 07:50:01;;;;;;;;;;;17.90;99.90;;;;;;5040416;28;20095;-83
2022/08/28 07:52:28;;;;;;;;;;;17.90;99.90;;;;;;5050706;28;19926;-83
2022/08/28 07:54:54;;;;;;;;;;;17.90;99.90;;;;;;5013617;28;19936;-82
2022/08/28 07:57:20;;;;;;;;;;;18.10;99.90;;;;;;5027258;28;19925;-86
2022/08/28 07:59:46;;;;;;;;;;;18.10;99.90;;;;;;5013757;28;19967;-84
2022/08/28 08:02:11;;;;;;;;;;;18.20;99.90;;;;;;5019165;28;19921;-81
2022/08/28 08:04:38;;;;;;;;;;;18.20;99.90;;;;;;5030459;28;19977;-85
2022/08/28 08:07:03;;;;;;;;;;;18.10;99.90;;;;;;5046292;28;19921;-82
2022/08/28 08:09:29;;;;;;;;;;;18.10;99.90;;;;;;5051973;28;19951;-84
2022/08/28 08:11:55;;;;;;;;;;;18.00;99.90;;;;;;5025417;28;20372;-83
2022/08/28 08:14:22;;;;;;;;;;;18.00;99.90;;;;;;5013943;28;19967;-82
2022/08/28 08:16:48;;;;;;;;;;;18.00;99.90;;;;;;5019059;28;20429;-82
2022/08/28 08:19:14;;;;;;;;;;;18.00;99.90;;;;;;5010035;28;19940;-80
2022/08/28 08:21:41;;;;;;;;;;;18.00;99.90;;;;;;5006565;28;20628;-80
2022/08/28 08:24:11;;;;;;;;;;;18.00;99.90;;;;;;5006956;28;19924;-78
2022/08/28 08:26:40;;;;;;;;;;;18.10;99.90;;;;;;5025750;28;20011;-81
2022/08/28 08:29:05;;;;;;;;;;;18.10;99.90;;;;;;5021284;28;19921;-79
2022/08/28 08:31:31;;;;;;;;;;;18.10;99.90;;;;;;5004458;28;20384;-83
2022/08/28 08:34:00;;;;;;;;;;;18.10;99.90;;;;;;5008990;28;19951;-86
2022/08/28 08:36:26;;;;;;;;;;;18.10;99.90;;;;;;5019803;28;19939;-83
2022/08/28 08:38:52;;;;;;;;;;;18.10;99.90;;;;;;5012193;28;20011;-83
2022/08/28 08:41:18;;;;;;;;;;;18.10;99.90;;;;;;5036398;28;19921;-83
2022/08/28 08:44:02;;;;;;;;;;;18.10;99.90;;;;;;5042717;28;20258;-87
2022/08/28 08:46:39;;;;;;;;;;;18.10;99.90;;;;;;5029419;28;19940;-83
2022/08/28 08:49:08;;;;;;;;;;;18.10;99.90;;;;;;5045573;28;19920;-84
2022/08/28 08:51:46;;;;;;;;;;;18.20;99.90;;;;;;5042611;28;19928;-82
2022/08/28 08:54:14;;;;;;;;;;;18.20;99.90;;;;;;5046529;28;19921;-82
2022/08/28 08:56:41;;;;;;;;;;;18.20;99.90;;;;;;5022182;28;20001;-83
2022/08/28 08:59:09;;;;;;;;;;;18.30;99.90;;;;;;5045744;28;20431;-84
2022/08/28 09:01:37;;;;;;;;;;;18.30;99.90;;;;;;5024140;28;20826;-82
2022/08/28 09:04:09;;;;;;;;;;;18.40;99.90;;;;;;5022546;28;20012;-83
2022/08/28 09:06:47;;;;;;;;;;;18.40;99.90;;;;;;5029127;28;19935;-82
2022/08/28 09:09:32;;;;;;;;;;;18.60;99.90;;;;;;5029902;28;19982;-83
2022/08/28 09:12:02;;;;;;;;;;;18.60;99.90;;;;;;5034352;28;20288;-82
2022/08/28 09:14:28;;;;;;;;;;;18.70;99.90;;;;;;5046825;28;19928;-83
2022/08/28 09:16:54;;;;;;;;;;;18.80;99.90;;;;;;5038886;28;19920;-82
2022/08/28 09:19:20;;;;;;;;;;;18.80;99.90;;;;;;5029797;28;19925;-81
2022/08/28 09:21:47;;;;;;;;;;;18.90;99.90;;;;;;5048285;28;19927;-81
2022/08/28 09:24:19;;;;;;;;;;;18.90;99.90;;;;;;5039004;28;19905;-82
2022/08/28 09:26:52;;;;;;;;;;;19.00;99.90;;;;;;5062092;28;19947;-82
2022/08/28 09:29:22;;;;;;;;;;;19.00;99.90;;;;;;5018550;28;19923;-81
2022/08/28 09:31:48;;;;;;;;;;;19.00;99.90;;;;;;5032993;28;20000;-82
2022/08/28 09:34:22;;;;;;;;;;;19.10;99.90;;;;;;5038468;28;19936;-81
2022/08/28 09:36:49;;;;;;;;;;;19.10;99.90;;;;;;5023421;28;20030;-83
2022/08/28 09:39:22;;;;;;;;;;;19.10;99.90;;;;;;5026974;28;19925;-82
2022/08/28 09:45:04;;;;;;;;;;;19.00;99.90;;;;;;5037607;28;20297;-83
2022/08/28 09:47:48;;;;;;;;;;;19.00;99.90;;;;;;5028595;28;20335;-82
2022/08/28 09:50:32;;;;;;;;;;;19.00;99.90;;;;;;5021624;28;19929;-82
2022/08/28 09:53:13;;;;;;;;;;;19.00;99.90;;;;;;5040535;28;19921;-83
2022/08/28 09:55:52;;;;;;;;;;;19.10;99.90;;;;;;5028138;28;20109;-84
2022/08/28 09:58:17;;;;;;;;;;;19.20;99.90;;;;;;5029325;28;19927;-82
2022/08/28 10:00:49;;;;;;;;;;;19.30;99.90;;;;;;5022863;28;20388;-84
2022/08/28 10:03:20;;;;;;;;;;;19.30;99.90;;;;;;5038612;28;19983;-83
2022/08/28 10:06:06;;;;;;;;;;;19.20;99.80;;;;;;5045722;28;19920;-82
2022/08/28 10:09:07;;;;;;;;;;;19.20;99.70;;;;;;5040193;28;20424;-82
2022/08/28 10:11:39;;;;;;;;;;;19.10;99.90;;;;;;4992165;28;19929;-80
2022/08/28 10:14:31;;;;;;;;;;;19.20;99.90;;;;;;5034476;28;19924;-82
2022/08/28 10:17:04;;;;;;;;;;;19.20;99.80;;;;;;5016413;28;20390;-82
2022/08/28 10:19:49;;;;;;;;;;;19.20;99.70;;;;;;5031707;28;19929;-81
2022/08/28 10:22:33;;;;;;;;;;;19.30;99.80;;;;;;5039857;28;20331;-79
2022/08/28 10:25:01;;;;;;;;;;;19.40;99.40;;;;;;5020776;28;20233;-80
2022/08/28 10:27:35;;;;;;;;;;;19.40;98.70;;;;;;5046678;28;19928;-80
2022/08/28 10:30:04;;;;;;;;;;;19.40;98.30;;;;;;5042494;28;20311;-79
2022/08/28 10:32:53;;;;;;;;;;;19.30;98.30;;;;;;5031167;28;20019;-80
2022/08/28 10:35:22;;;;;;;;;;;19.40;98.30;;;;;;5009744;28;19925;-81
2022/08/28 10:38:08;;;;;;;;;;;19.40;98.20;;;;;;5046979;28;20483;-80
2022/08/28 10:40:35;;;;;;;;;;;19.50;98.10;;;;;;5026453;28;19943;-81
2022/08/28 10:43:15;;;;;;;;;;;19.50;98.10;;;;;;5046974;28;20455;-80
2022/08/28 10:45:41;;;;;;;;;;;19.70;98.30;;;;;;5029399;28;20323;-81
2022/08/28 10:48:22;;;;;;;;;;;19.70;98.10;;;;;;5031280;28;19928;-79
2022/08/28 10:50:51;;;;;;;;;;;19.70;98.10;;;;;;5047313;28;19928;-80
2022/08/28 10:53:19;;;;;;;;;;;19.80;98.10;;;;;;5049973;28;19964;-79
2022/08/28 10:55:50;;;;;;;;;;;19.80;97.60;;;;;;5028553;28;20011;-81
2022/08/28 10:58:16;;;;;;;;;;;19.70;97.50;;;;;;5021482;28;19920;-80
2022/08/28 11:00:42;;;;;;;;;;;19.70;97.40;;;;;;5028981;28;20269;-81
2022/08/28 11:03:18;;;;;;;;;;;19.70;97.20;;;;;;5049943;28;19933;-81
2022/08/28 11:05:46;;;;;;;;;;;19.70;97.00;;;;;;5032895;28;19928;-82
2022/08/28 11:08:22;;;;;;;;;;;19.80;97.40;;;;;;5040156;28;20403;-81
2022/08/28 11:10:51;;;;;;;;;;;19.80;97.70;;;;;;5030474;28;19964;-79
2022/08/28 11:13:36;;;;;;;;;;;20.00;97.80;;;;;;5034520;28;19920;-81
2022/08/28 11:16:08;;;;;;;;;;;20.10;97.90;;;;;;5041935;28;19920;-79
2022/08/28 11:18:44;;;;;;;;;;;20.20;97.10;;;;;;5032080;28;19927;-80
2022/08/28 11:21:23;;;;;;;;;;;20.10;96.80;;;;;;5045784;28;20044;-81
2022/08/28 11:23:54;;;;;;;;;;;20.20;96.70;;;;;;5018184;28;19921;-81
2022/08/28 11:26:28;;;;;;;;;;;20.20;96.90;;;;;;5045202;28;19943;-82
2022/08/28 11:28:54;;;;;;;;;;;20.30;96.80;;;;;;5040125;28;20372;-80
2022/08/28 11:31:29;;;;;;;;;;;20.30;96.90;;;;;;5028100;28;19925;-80
2022/08/28 11:33:57;;;;;;;;;;;20.40;96.50;;;;;;5039678;28;20284;-80
2022/08/28 11:36:25;;;;;;;;;;;20.40;96.30;;;;;;5028579;28;19927;-81
2022/08/28 11:38:50;;;;;;;;;;;20.30;96.30;;;;;;5029656;28;20369;-79
2022/08/28 11:41:37;;;;;;;;;;;20.40;96.20;;;;;;5046106;28;19940;-81
2022/08/28 11:44:02;;;;;;;;;;;20.40;96.00;;;;;;5027728;28;19927;-79
2022/08/28 11:46:31;;;;;;;;;;;20.50;96.20;;;;;;5042758;28;19921;-79
2022/08/28 11:48:58;;;;;;;;;;;20.60;95.80;;;;;;5027790;28;19921;-80
2022/08/28 11:51:34;;;;;;;;;;;20.60;95.40;;;;;;5048388;28;19920;-79
2022/08/28 11:54:09;;;;;;;;;;;20.70;95.30;;;;;;5048075;28;19927;-82
2022/08/28 11:56:43;;;;;;;;;;;20.80;94.70;;;;;;5015984;28;19927;-79
2022/08/28 11:59:11;;;;;;;;;;;20.80;94.50;;;;;;5047124;28;19940;-80
2022/08/28 12:01:38;;;;;;;;;;;20.90;94.60;;;;;;5049289;28;19964;-80
2022/08/28 12:04:05;;;;;;;;;;;21.00;94.30;;;;;;5030074;28;20059;-81
2022/08/28 12:06:46;;;;;;;;;;;21.10;94.10;;;;;;5043161;28;19921;-82
2022/08/28 12:09:31;;;;;;;;;;;21.10;94.00;;;;;;5011084;28;19921;-81
2022/08/28 12:11:58;;;;;;;;;;;21.20;94.20;;;;;;5036689;28;19921;-81
2022/08/28 12:14:24;;;;;;;;;;;21.00;94.40;;;;;;5038588;28;19928;-81
2022/08/28 12:17:02;;;;;;;;;;;21.10;94.60;;;;;;5023964;28;19920;-81
2022/08/28 12:19:42;;;;;;;;;;;21.20;94.60;;;;;;5029014;28;20500;-81
2022/08/28 12:22:19;;;;;;;;;;;21.30;94.60;;;;;;5034616;28;20380;-79
2022/08/28 12:24:59;;;;;;;;;;;21.30;94.70;;;;;;5001567;28;19932;-80
2022/08/28 12:27:25;;;;;;;;;;;21.30;94.30;;;;;;5003416;28;19921;-82
2022/08/28 12:29:51;;;;;;;;;;;21.20;93.80;;;;;;5006953;28;19968;-81
2022/08/28 12:32:23;;;;;;;;;;;21.20;94.20;;;;;;5013493;28;20079;-81
2022/08/28 12:34:58;;;;;;;;;;;21.20;94.10;;;;;;5013337;28;19971;-79
2022/08/28 12:37:26;;;;;;;;;;;21.20;94.60;;;;;;5015454;28;19921;-81
2022/08/28 12:39:53;;;;;;;;;;;21.30;94.60;;;;;;5009645;28;20424;-78
2022/08/28 12:42:21;;;;;;;;;;;21.30;94.60;;;;;;5022844;28;19979;-80
2022/08/28 12:44:47;;;;;;;;;;;21.40;94.20;;;;;;5028735;28;19982;-81
2022/08/28 12:47:14;;;;;;;;;;;21.40;94.10;;;;;;5012202;28;19937;-80
2022/08/28 12:49:39;;;;;;;;;;;21.50;94.20;;;;;;5023808;28;19932;-81
2022/08/28 12:52:16;;;;;;;;;;;21.50;93.90;;;;;;5034347;28;19921;-80
2022/08/28 12:54:45;;;;;;;;;;;21.50;93.80;;;;;;5019285;28;19939;-80
2022/08/28 12:57:12;;;;;;;;;;;21.40;94.30;;;;;;5009484;28;19921;-81
2022/08/28 12:59:39;;;;;;;;;;;21.50;94.60;;;;;;5027917;28;20012;-82
2022/08/28 13:02:09;;;;;;;;;;;21.60;94.90;;;;;;5026470;28;20281;-81
2022/08/28 13:04:40;;;;;;;;;;;21.70;94.90;;;;;;5007877;28;19967;-79
2022/08/28 13:07:09;;;;;;;;;;;21.80;94.80;;;;;;5014681;28;19917;-77
2022/08/28 13:09:35;;;;;;;;;;;21.90;94.40;;;;;;5007313;28;19928;-77
2022/08/28 13:12:01;;;;;;;;;;;22.00;94.30;;;;;;5028219;28;19917;-77
2022/08/28 13:14:40;;;;;;;;;;;21.90;93.80;;;;;;5009134;28;19922;-76
2022/08/28 13:17:06;;;;;;;;;;;21.70;93.80;;;;;;5024940;28;19947;-76
2022/08/28 13:19:34;;;;;;;;;;;21.60;93.80;;;;;;5025071;28;19929;-77
2022/08/28 13:22:04;;;;;;;;;;;21.40;94.10;;;;;;5016185;28;20014;-77
2022/08/28 13:24:29;;;;;;;;;;;21.40;94.30;;;;;;5022260;28;19921;-78
2022/08/28 13:27:02;;;;;;;;;;;21.30;94.50;;;;;;5011151;28;19928;-77
2022/08/28 13:29:28;;;;;;;;;;;21.30;94.50;;;;;;5007968;28;19921;-80
2022/08/28 13:31:58;;;;;;;;;;;21.30;94.40;;;;;;5016847;28;19916;-80
2022/08/28 13:34:25;;;;;;;;;;;21.30;94.60;;;;;;5025463;28;19920;-80
2022/08/28 13:36:52;;;;;;;;;;;21.30;94.70;;;;;;5037278;28;20402;-81
2022/08/28 13:39:19;;;;;;;;;;;21.30;94.70;;;;;;5047455;28;20303;-81
2022/08/28 13:41:46;;;;;;;;;;;21.20;94.80;;;;;;5024583;28;19925;-79
2022/08/28 13:44:37;;;;;;;;;;;21.10;95.00;;;;;;5028478;28;19925;-80
2022/08/28 13:47:05;;;;;;;;;;;21.10;95.30;;;;;;5024311;28;19921;-81
2022/08/28 13:49:31;;;;;;;;;;;21.10;95.40;;;;;;5029436;28;19924;-81
2022/08/28 13:51:58;;;;;;;;;;;21.00;95.60;;;;;;5016830;28;19921;-81
2022/08/28 13:54:23;;;;;;;;;;;21.10;95.80;;;;;;5050330;28;20408;-79
2022/08/28 13:56:49;;;;;;;;;;;21.10;95.60;;;;;;5054328;28;19939;-79
2022/08/28 13:59:15;;;;;;;;;;;21.10;95.70;;;;;;5030328;28;19920;-79
2022/08/28 14:04:25;;;;;;;;;;;21.20;95.60;;;;;;5050816;28;20099;-79
2022/08/28 14:06:51;;;;;;;;;;;21.10;95.60;;;;;;5051044;28;19952;-79
2022/08/28 14:09:16;;;;;;;;;;;21.10;95.60;;;;;;5044802;28;19950;-78
2022/08/28 14:11:43;;;;;;;;;;;21.00;95.50;;;;;;5037381;28;19924;-78
2022/08/28 14:14:08;;;;;;;;;;;20.90;95.60;;;;;;5023164;28;20353;-80
2022/08/28 14:16:35;;;;;;;;;;;20.60;95.50;;;;;;5040476;28;19928;-78
2022/08/28 14:19:03;;;;;;;;;;;20.70;95.50;;;;;;5021425;28;20015;-81
2022/08/28 14:21:30;;;;;;;;;;;20.50;95.40;;;;;;5036911;28;19924;-80
2022/08/28 14:23:57;;;;;;;;;;;20.40;95.60;;;;;;5050241;28;19921;-81
2022/08/28 14:26:22;;;;;;;;;;;20.40;95.70;;;;;;5043269;28;19921;-81
2022/08/28 14:28:48;;;;;;;;;;;20.30;95.80;;;;;;5031451;28;19931;-80
2022/08/28 14:31:13;;;;;;;;;;;20.30;95.80;;;;;;5023358;28;19971;-80
2022/08/28 14:33:39;;;;;;;;;;;20.20;95.60;;;;;;5049620;28;19921;-80